sensor_id;sensor_type;location;lat;lon;timestamp;P1;durP1;ratioP1;P2;durP2;ratioP2
19883;SDS011;10104;50.732;10.174;2023-10-08T00:01:42;10.32;;;4.13;;
19883;SDS011;10104;50.732;10.174;2023-10-08T00:04:23;8.70;;;3.88;;
19883;SDS011;10104;50.732;10.174;2023-10-08T00:07:04;7.85;;;4.00;;
19883;SDS011;10104;50.732;10.174;2023-10-08T00:09:48;6.93;;;3.78;;
19883;SDS011;10104;50.732;10.174;2023-10-08T00:12:30;6.70;;;4.60;;
19883;SDS011;10104;50.732;10.174;2023-10-08T00:15:10;8.05;;;3.60;;
19883;SDS011;10104;50.732;10.174;2023-10-08T00:17:51;9.40;;;4.55;;
19883;SDS011;10104;50.732;10.174;2023-10-08T00:20:35;9.55;;;4.38;;
19883;SDS011;10104;50.732;10.174;2023-10-08T00:23:23;9.35;;;3.85;;
19883;SDS011;10104;50.732;10.174;2023-10-08T00:26:05;7.05;;;4.38;;
19883;SDS011;10104;50.732;10.174;2023-10-08T00:28:46;6.95;;;3.65;;
19883;SDS011;10104;50.732;10.174;2023-10-08T00:31:27;8.02;;;4.15;;
19883;SDS011;10104;50.732;10.174;2023-10-08T00:34:12;9.55;;;4.20;;
19883;SDS011;10104;50.732;10.174;2023-10-08T00:36:53;8.02;;;3.40;;
19883;SDS011;10104;50.732;10.174;2023-10-08T00:39:33;9.35;;;4.28;;
19883;SDS011;10104;50.732;10.174;2023-10-08T00:42:17;10.30;;;4.40;;
19883;SDS011;10104;50.732;10.174;2023-10-08T00:44:58;9.40;;;4.22;;
19883;SDS011;10104;50.732;10.174;2023-10-08T00:47:40;8.77;;;4.05;;
19883;SDS011;10104;50.732;10.174;2023-10-08T00:50:25;9.20;;;4.30;;
19883;SDS011;10104;50.732;10.174;2023-10-08T00:53:11;7.18;;;3.90;;
19883;SDS011;10104;50.732;10.174;2023-10-08T00:56:01;10.75;;;4.32;;
19883;SDS011;10104;50.732;10.174;2023-10-08T00:58:46;7.85;;;4.18;;
19883;SDS011;10104;50.732;10.174;2023-10-08T01:01:29;10.10;;;4.75;;
19883;SDS011;10104;50.732;10.174;2023-10-08T01:04:15;9.50;;;4.28;;
19883;SDS011;10104;50.732;10.174;2023-10-08T01:06:57;6.35;;;3.83;;
19883;SDS011;10104;50.732;10.174;2023-10-08T01:09:42;6.63;;;4.00;;
19883;SDS011;10104;50.732;10.174;2023-10-08T01:12:23;9.35;;;3.90;;
19883;SDS011;10104;50.732;10.174;2023-10-08T01:15:08;7.40;;;4.00;;
19883;SDS011;10104;50.732;10.174;2023-10-08T01:18:03;10.85;;;5.07;;
19883;SDS011;10104;50.732;10.174;2023-10-08T01:20:46;10.40;;;4.15;;
19883;SDS011;10104;50.732;10.174;2023-10-08T01:23:33;8.25;;;4.15;;
19883;SDS011;10104;50.732;10.174;2023-10-08T01:26:13;5.82;;;3.92;;
19883;SDS011;10104;50.732;10.174;2023-10-08T01:28:55;7.70;;;4.25;;
19883;SDS011;10104;50.732;10.174;2023-10-08T01:31:35;9.20;;;4.22;;
19883;SDS011;10104;50.732;10.174;2023-10-08T01:34:16;8.50;;;4.15;;
19883;SDS011;10104;50.732;10.174;2023-10-08T01:36:58;8.13;;;4.65;;
19883;SDS011;10104;50.732;10.174;2023-10-08T01:39:46;7.80;;;4.35;;
19883;SDS011;10104;50.732;10.174;2023-10-08T01:42:29;8.95;;;4.25;;
19883;SDS011;10104;50.732;10.174;2023-10-08T01:45:12;12.40;;;4.60;;
19883;SDS011;10104;50.732;10.174;2023-10-08T01:47:58;8.90;;;3.92;;
19883;SDS011;10104;50.732;10.174;2023-10-08T01:50:38;8.65;;;4.25;;
19883;SDS011;10104;50.732;10.174;2023-10-08T01:53:18;7.90;;;3.90;;
19883;SDS011;10104;50.732;10.174;2023-10-08T01:56:00;8.13;;;4.13;;
19883;SDS011;10104;50.732;10.174;2023-10-08T01:58:41;9.90;;;3.72;;
19883;SDS011;10104;50.732;10.174;2023-10-08T02:01:21;9.32;;;4.85;;
19883;SDS011;10104;50.732;10.174;2023-10-08T02:04:02;7.55;;;4.68;;
19883;SDS011;10104;50.732;10.174;2023-10-08T02:06:42;11.88;;;4.63;;
19883;SDS011;10104;50.732;10.174;2023-10-08T02:09:24;6.57;;;3.80;;
19883;SDS011;10104;50.732;10.174;2023-10-08T02:16:07;10.02;;;4.40;;
19883;SDS011;10104;50.732;10.174;2023-10-08T02:18:47;7.72;;;4.07;;
19883;SDS011;10104;50.732;10.174;2023-10-08T02:21:30;6.85;;;4.28;;
19883;SDS011;10104;50.732;10.174;2023-10-08T02:24:11;9.35;;;4.93;;
19883;SDS011;10104;50.732;10.174;2023-10-08T02:26:52;9.57;;;4.60;;
19883;SDS011;10104;50.732;10.174;2023-10-08T02:29:34;12.30;;;4.78;;
19883;SDS011;10104;50.732;10.174;2023-10-08T02:32:15;9.98;;;4.80;;
19883;SDS011;10104;50.732;10.174;2023-10-08T02:34:55;7.97;;;4.35;;
19883;SDS011;10104;50.732;10.174;2023-10-08T02:37:37;6.97;;;4.20;;
19883;SDS011;10104;50.732;10.174;2023-10-08T02:40:20;9.35;;;4.25;;
19883;SDS011;10104;50.732;10.174;2023-10-08T02:43:06;11.48;;;4.25;;
19883;SDS011;10104;50.732;10.174;2023-10-08T02:45:48;12.27;;;4.88;;
19883;SDS011;10104;50.732;10.174;2023-10-08T02:48:30;13.43;;;4.90;;
19883;SDS011;10104;50.732;10.174;2023-10-08T02:51:11;12.80;;;4.93;;
19883;SDS011;10104;50.732;10.174;2023-10-08T02:53:54;8.98;;;4.30;;
19883;SDS011;10104;50.732;10.174;2023-10-08T02:56:34;8.07;;;4.00;;
19883;SDS011;10104;50.732;10.174;2023-10-08T02:59:14;7.18;;;4.18;;
19883;SDS011;10104;50.732;10.174;2023-10-08T03:01:55;9.13;;;4.97;;
19883;SDS011;10104;50.732;10.174;2023-10-08T03:04:36;7.47;;;4.30;;
19883;SDS011;10104;50.732;10.174;2023-10-08T03:07:16;7.57;;;3.80;;
19883;SDS011;10104;50.732;10.174;2023-10-08T03:10:12;13.68;;;4.95;;
19883;SDS011;10104;50.732;10.174;2023-10-08T03:12:58;10.27;;;4.43;;
19883;SDS011;10104;50.732;10.174;2023-10-08T03:15:45;7.75;;;4.68;;
19883;SDS011;10104;50.732;10.174;2023-10-08T03:18:27;15.23;;;4.63;;
19883;SDS011;10104;50.732;10.174;2023-10-08T03:21:21;8.48;;;4.10;;
19883;SDS011;10104;50.732;10.174;2023-10-08T03:24:13;9.48;;;4.78;;
19883;SDS011;10104;50.732;10.174;2023-10-08T03:27:09;9.43;;;4.45;;
19883;SDS011;10104;50.732;10.174;2023-10-08T03:29:53;7.80;;;4.50;;
19883;SDS011;10104;50.732;10.174;2023-10-08T03:32:34;11.43;;;4.57;;
19883;SDS011;10104;50.732;10.174;2023-10-08T03:35:15;13.13;;;4.85;;
19883;SDS011;10104;50.732;10.174;2023-10-08T03:37:56;8.20;;;4.50;;
19883;SDS011;10104;50.732;10.174;2023-10-08T03:40:57;11.65;;;4.63;;
19883;SDS011;10104;50.732;10.174;2023-10-08T03:43:43;11.32;;;5.15;;
19883;SDS011;10104;50.732;10.174;2023-10-08T03:46:33;14.10;;;5.50;;
19883;SDS011;10104;50.732;10.174;2023-10-08T03:49:23;14.63;;;4.65;;
19883;SDS011;10104;50.732;10.174;2023-10-08T03:52:03;8.88;;;4.55;;
19883;SDS011;10104;50.732;10.174;2023-10-08T03:54:46;11.05;;;4.68;;
19883;SDS011;10104;50.732;10.174;2023-10-08T03:57:43;9.45;;;4.93;;
19883;SDS011;10104;50.732;10.174;2023-10-08T04:00:24;9.70;;;5.47;;
19883;SDS011;10104;50.732;10.174;2023-10-08T04:03:20;15.07;;;5.15;;
19883;SDS011;10104;50.732;10.174;2023-10-08T04:06:21;7.57;;;4.70;;
19883;SDS011;10104;50.732;10.174;2023-10-08T04:09:08;12.82;;;5.45;;
19883;SDS011;10104;50.732;10.174;2023-10-08T04:11:49;11.88;;;5.10;;
19883;SDS011;10104;50.732;10.174;2023-10-08T04:14:31;9.68;;;5.07;;
19883;SDS011;10104;50.732;10.174;2023-10-08T04:17:11;13.32;;;5.18;;
19883;SDS011;10104;50.732;10.174;2023-10-08T04:19:51;9.90;;;5.05;;
19883;SDS011;10104;50.732;10.174;2023-10-08T04:22:31;10.30;;;5.00;;
19883;SDS011;10104;50.732;10.174;2023-10-08T04:25:12;10.77;;;4.88;;
19883;SDS011;10104;50.732;10.174;2023-10-08T04:27:52;11.32;;;5.00;;
19883;SDS011;10104;50.732;10.174;2023-10-08T04:30:35;8.85;;;5.25;;
19883;SDS011;10104;50.732;10.174;2023-10-08T04:33:16;9.45;;;5.28;;
19883;SDS011;10104;50.732;10.174;2023-10-08T04:35:59;14.23;;;5.30;;
19883;SDS011;10104;50.732;10.174;2023-10-08T04:38:42;11.18;;;4.90;;
19883;SDS011;10104;50.732;10.174;2023-10-08T04:41:22;7.63;;;4.68;;
19883;SDS011;10104;50.732;10.174;2023-10-08T04:44:11;10.80;;;5.18;;
19883;SDS011;10104;50.732;10.174;2023-10-08T04:46:54;12.57;;;5.72;;
19883;SDS011;10104;50.732;10.174;2023-10-08T04:49:34;12.20;;;5.45;;
19883;SDS011;10104;50.732;10.174;2023-10-08T04:52:17;9.32;;;5.00;;
19883;SDS011;10104;50.732;10.174;2023-10-08T04:54:59;10.02;;;4.82;;
19883;SDS011;10104;50.732;10.174;2023-10-08T04:57:52;8.13;;;4.70;;
19883;SDS011;10104;50.732;10.174;2023-10-08T05:00:32;13.52;;;5.20;;
19883;SDS011;10104;50.732;10.174;2023-10-08T05:03:33;8.45;;;5.03;;
19883;SDS011;10104;50.732;10.174;2023-10-08T05:06:24;8.07;;;5.47;;
19883;SDS011;10104;50.732;10.174;2023-10-08T05:09:17;13.65;;;5.65;;
19883;SDS011;10104;50.732;10.174;2023-10-08T05:12:00;10.02;;;5.47;;
19883;SDS011;10104;50.732;10.174;2023-10-08T05:15:06;10.63;;;5.68;;
19883;SDS011;10104;50.732;10.174;2023-10-08T05:17:56;8.82;;;5.40;;
19883;SDS011;10104;50.732;10.174;2023-10-08T05:20:53;14.18;;;5.50;;
19883;SDS011;10104;50.732;10.174;2023-10-08T05:23:39;11.57;;;5.82;;
19883;SDS011;10104;50.732;10.174;2023-10-08T05:26:48;13.88;;;5.97;;
19883;SDS011;10104;50.732;10.174;2023-10-08T05:29:39;15.80;;;5.97;;
19883;SDS011;10104;50.732;10.174;2023-10-08T05:32:32;8.25;;;5.22;;
19883;SDS011;10104;50.732;10.174;2023-10-08T05:35:24;12.02;;;6.05;;
19883;SDS011;10104;50.732;10.174;2023-10-08T05:38:25;12.75;;;6.05;;
19883;SDS011;10104;50.732;10.174;2023-10-08T05:41:14;9.57;;;5.30;;
19883;SDS011;10104;50.732;10.174;2023-10-08T05:44:08;13.48;;;6.10;;
19883;SDS011;10104;50.732;10.174;2023-10-08T05:47:03;16.30;;;5.90;;
19883;SDS011;10104;50.732;10.174;2023-10-08T05:50:03;13.07;;;6.20;;
19883;SDS011;10104;50.732;10.174;2023-10-08T05:53:03;11.27;;;5.57;;
19883;SDS011;10104;50.732;10.174;2023-10-08T05:55:55;10.82;;;5.43;;
19883;SDS011;10104;50.732;10.174;2023-10-08T05:58:41;12.35;;;6.18;;
19883;SDS011;10104;50.732;10.174;2023-10-08T06:01:40;10.70;;;5.55;;
19883;SDS011;10104;50.732;10.174;2023-10-08T06:04:21;9.57;;;5.30;;
19883;SDS011;10104;50.732;10.174;2023-10-08T06:07:21;11.93;;;6.07;;
19883;SDS011;10104;50.732;10.174;2023-10-08T06:10:13;13.15;;;6.63;;
19883;SDS011;10104;50.732;10.174;2023-10-08T06:13:07;13.35;;;5.75;;
19883;SDS011;10104;50.732;10.174;2023-10-08T06:15:49;11.90;;;5.90;;
19883;SDS011;10104;50.732;10.174;2023-10-08T06:18:36;13.25;;;6.43;;
19883;SDS011;10104;50.732;10.174;2023-10-08T06:21:17;10.82;;;6.00;;
19883;SDS011;10104;50.732;10.174;2023-10-08T06:23:58;10.48;;;5.85;;
19883;SDS011;10104;50.732;10.174;2023-10-08T06:26:39;12.20;;;6.32;;
19883;SDS011;10104;50.732;10.174;2023-10-08T06:29:22;14.70;;;6.35;;
19883;SDS011;10104;50.732;10.174;2023-10-08T06:32:09;10.73;;;6.03;;
19883;SDS011;10104;50.732;10.174;2023-10-08T06:34:52;12.63;;;6.30;;
19883;SDS011;10104;50.732;10.174;2023-10-08T06:37:32;12.20;;;6.15;;
19883;SDS011;10104;50.732;10.174;2023-10-08T06:40:15;10.23;;;6.03;;
19883;SDS011;10104;50.732;10.174;2023-10-08T06:43:14;10.30;;;5.95;;
19883;SDS011;10104;50.732;10.174;2023-10-08T06:45:54;12.35;;;6.35;;
19883;SDS011;10104;50.732;10.174;2023-10-08T06:48:39;13.48;;;5.95;;
19883;SDS011;10104;50.732;10.174;2023-10-08T06:51:22;13.18;;;6.10;;
19883;SDS011;10104;50.732;10.174;2023-10-08T06:54:05;9.88;;;5.65;;
19883;SDS011;10104;50.732;10.174;2023-10-08T06:56:49;7.80;;;5.30;;
19883;SDS011;10104;50.732;10.174;2023-10-08T06:59:32;15.52;;;6.82;;
19883;SDS011;10104;50.732;10.174;2023-10-08T07:02:12;10.65;;;5.68;;
19883;SDS011;10104;50.732;10.174;2023-10-08T07:04:55;11.98;;;6.05;;
19883;SDS011;10104;50.732;10.174;2023-10-08T07:07:36;9.95;;;5.93;;
19883;SDS011;10104;50.732;10.174;2023-10-08T07:10:19;11.07;;;6.15;;
19883;SDS011;10104;50.732;10.174;2023-10-08T07:13:03;12.40;;;6.05;;
19883;SDS011;10104;50.732;10.174;2023-10-08T07:15:43;13.80;;;6.80;;
19883;SDS011;10104;50.732;10.174;2023-10-08T07:18:24;17.48;;;6.50;;
19883;SDS011;10104;50.732;10.174;2023-10-08T07:21:05;12.95;;;6.50;;
19883;SDS011;10104;50.732;10.174;2023-10-08T07:23:52;12.02;;;6.78;;
19883;SDS011;10104;50.732;10.174;2023-10-08T07:26:39;12.07;;;6.72;;
19883;SDS011;10104;50.732;10.174;2023-10-08T07:29:20;14.50;;;7.07;;
19883;SDS011;10104;50.732;10.174;2023-10-08T07:32:01;12.55;;;6.70;;
19883;SDS011;10104;50.732;10.174;2023-10-08T07:34:49;11.52;;;5.97;;
19883;SDS011;10104;50.732;10.174;2023-10-08T07:37:37;15.15;;;6.40;;
19883;SDS011;10104;50.732;10.174;2023-10-08T07:40:17;9.77;;;5.82;;
19883;SDS011;10104;50.732;10.174;2023-10-08T07:43:00;10.27;;;4.72;;
19883;SDS011;10104;50.732;10.174;2023-10-08T07:45:48;6.45;;;3.67;;
19883;SDS011;10104;50.732;10.174;2023-10-08T07:48:28;7.47;;;3.30;;
19883;SDS011;10104;50.732;10.174;2023-10-08T07:51:13;5.47;;;3.33;;
19883;SDS011;10104;50.732;10.174;2023-10-08T07:53:54;4.00;;;2.58;;
19883;SDS011;10104;50.732;10.174;2023-10-08T07:56:36;4.60;;;2.22;;
19883;SDS011;10104;50.732;10.174;2023-10-08T07:59:19;6.70;;;1.85;;
19883;SDS011;10104;50.732;10.174;2023-10-08T08:02:01;3.20;;;1.55;;
19883;SDS011;10104;50.732;10.174;2023-10-08T08:04:52;4.93;;;1.83;;
19883;SDS011;10104;50.732;10.174;2023-10-08T08:07:33;3.65;;;1.48;;
19883;SDS011;10104;50.732;10.174;2023-10-08T08:10:13;1.40;;;1.20;;
19883;SDS011;10104;50.732;10.174;2023-10-08T08:12:53;2.30;;;1.30;;
19883;SDS011;10104;50.732;10.174;2023-10-08T08:15:37;2.78;;;1.52;;
19883;SDS011;10104;50.732;10.174;2023-10-08T08:18:26;4.18;;;1.05;;
19883;SDS011;10104;50.732;10.174;2023-10-08T08:21:13;3.42;;;1.25;;
19883;SDS011;10104;50.732;10.174;2023-10-08T08:23:56;2.10;;;1.20;;
19883;SDS011;10104;50.732;10.174;2023-10-08T08:26:45;1.33;;;0.90;;
19883;SDS011;10104;50.732;10.174;2023-10-08T08:29:41;5.05;;;2.80;;
19883;SDS011;10104;50.732;10.174;2023-10-08T08:32:24;5.57;;;3.22;;
19883;SDS011;10104;50.732;10.174;2023-10-08T08:35:06;2.53;;;1.30;;
19883;SDS011;10104;50.732;10.174;2023-10-08T08:37:47;3.83;;;2.80;;
19883;SDS011;10104;50.732;10.174;2023-10-08T08:40:29;3.03;;;2.25;;
19883;SDS011;10104;50.732;10.174;2023-10-08T08:43:10;2.70;;;1.83;;
19883;SDS011;10104;50.732;10.174;2023-10-08T08:45:51;2.13;;;1.67;;
19883;SDS011;10104;50.732;10.174;2023-10-08T08:48:31;6.40;;;2.33;;
19883;SDS011;10104;50.732;10.174;2023-10-08T08:51:13;4.65;;;2.40;;
19883;SDS011;10104;50.732;10.174;2023-10-08T08:53:54;3.97;;;3.53;;
19883;SDS011;10104;50.732;10.174;2023-10-08T08:56:35;4.55;;;3.95;;
19883;SDS011;10104;50.732;10.174;2023-10-08T08:59:18;2.80;;;2.20;;
19883;SDS011;10104;50.732;10.174;2023-10-08T09:02:00;2.92;;;2.53;;
19883;SDS011;10104;50.732;10.174;2023-10-08T09:04:40;2.30;;;1.50;;
19883;SDS011;10104;50.732;10.174;2023-10-08T09:07:21;3.13;;;1.50;;
19883;SDS011;10104;50.732;10.174;2023-10-08T09:10:01;0.93;;;0.50;;
19883;SDS011;10104;50.732;10.174;2023-10-08T09:12:41;2.17;;;1.30;;
19883;SDS011;10104;50.732;10.174;2023-10-08T09:15:23;6.88;;;1.40;;
19883;SDS011;10104;50.732;10.174;2023-10-08T09:18:04;3.03;;;1.20;;
19883;SDS011;10104;50.732;10.174;2023-10-08T09:20:45;2.63;;;1.00;;
19883;SDS011;10104;50.732;10.174;2023-10-08T09:23:27;3.42;;;1.40;;
19883;SDS011;10104;50.732;10.174;2023-10-08T09:26:09;2.55;;;1.10;;
19883;SDS011;10104;50.732;10.174;2023-10-08T09:28:54;1.65;;;0.80;;
19883;SDS011;10104;50.732;10.174;2023-10-08T09:31:34;1.70;;;0.93;;
19883;SDS011;10104;50.732;10.174;2023-10-08T09:34:17;1.50;;;0.70;;
19883;SDS011;10104;50.732;10.174;2023-10-08T09:36:58;0.95;;;0.60;;
19883;SDS011;10104;50.732;10.174;2023-10-08T09:39:40;2.25;;;0.75;;
19883;SDS011;10104;50.732;10.174;2023-10-08T09:42:22;0.70;;;0.50;;
19883;SDS011;10104;50.732;10.174;2023-10-08T09:45:05;0.77;;;0.65;;
19883;SDS011;10104;50.732;10.174;2023-10-08T09:47:54;2.88;;;1.00;;
19883;SDS011;10104;50.732;10.174;2023-10-08T09:50:36;1.40;;;0.73;;
19883;SDS011;10104;50.732;10.174;2023-10-08T09:53:22;0.88;;;0.65;;
19883;SDS011;10104;50.732;10.174;2023-10-08T09:56:13;1.05;;;0.70;;
19883;SDS011;10104;50.732;10.174;2023-10-08T09:58:55;2.55;;;0.90;;
19883;SDS011;10104;50.732;10.174;2023-10-08T10:01:38;1.83;;;0.60;;
19883;SDS011;10104;50.732;10.174;2023-10-08T10:04:24;1.30;;;1.10;;
19883;SDS011;10104;50.732;10.174;2023-10-08T10:07:11;1.15;;;0.45;;
19883;SDS011;10104;50.732;10.174;2023-10-08T10:09:54;4.00;;;0.73;;
19883;SDS011;10104;50.732;10.174;2023-10-08T10:12:36;2.95;;;0.60;;
19883;SDS011;10104;50.732;10.174;2023-10-08T10:15:16;4.07;;;0.55;;
19883;SDS011;10104;50.732;10.174;2023-10-08T10:18:13;1.08;;;0.47;;
19883;SDS011;10104;50.732;10.174;2023-10-08T10:23:54;0.97;;;0.50;;
19883;SDS011;10104;50.732;10.174;2023-10-08T10:26:36;1.13;;;0.40;;
19883;SDS011;10104;50.732;10.174;2023-10-08T10:33:29;0.87;;;0.70;;
19883;SDS011;10104;50.732;10.174;2023-10-08T10:36:10;0.83;;;0.60;;
19883;SDS011;10104;50.732;10.174;2023-10-08T10:38:53;2.03;;;0.70;;
19883;SDS011;10104;50.732;10.174;2023-10-08T10:41:33;3.03;;;0.50;;
19883;SDS011;10104;50.732;10.174;2023-10-08T10:44:14;2.00;;;0.60;;
19883;SDS011;10104;50.732;10.174;2023-10-08T10:46:55;1.00;;;0.67;;
19883;SDS011;10104;50.732;10.174;2023-10-08T10:49:55;1.70;;;0.40;;
19883;SDS011;10104;50.732;10.174;2023-10-08T10:52:40;2.53;;;0.53;;
19883;SDS011;10104;50.732;10.174;2023-10-08T10:55:32;0.90;;;0.70;;
19883;SDS011;10104;50.732;10.174;2023-10-08T10:58:12;1.10;;;0.80;;
19883;SDS011;10104;50.732;10.174;2023-10-08T11:00:55;1.17;;;1.00;;
19883;SDS011;10104;50.732;10.174;2023-10-08T11:03:39;0.60;;;0.60;;
19883;SDS011;10104;50.732;10.174;2023-10-08T11:06:22;1.07;;;0.60;;
19883;SDS011;10104;50.732;10.174;2023-10-08T11:09:03;1.00;;;0.70;;
19883;SDS011;10104;50.732;10.174;2023-10-08T11:11:46;0.70;;;0.70;;
19883;SDS011;10104;50.732;10.174;2023-10-08T11:14:34;0.60;;;0.60;;
19883;SDS011;10104;50.732;10.174;2023-10-08T11:17:18;4.20;;;0.80;;
19883;SDS011;10104;50.732;10.174;2023-10-08T11:20:05;1.80;;;0.60;;
19883;SDS011;10104;50.732;10.174;2023-10-08T11:23:04;3.22;;;1.48;;
19883;SDS011;10104;50.732;10.174;2023-10-08T11:25:58;0.90;;;0.70;;
19883;SDS011;10104;50.732;10.174;2023-10-08T11:28:42;0.57;;;0.53;;
19883;SDS011;10104;50.732;10.174;2023-10-08T11:31:22;8.17;;;5.40;;
19883;SDS011;10104;50.732;10.174;2023-10-08T11:34:04;1.40;;;0.60;;
19883;SDS011;10104;50.732;10.174;2023-10-08T11:36:54;0.60;;;0.50;;
19883;SDS011;10104;50.732;10.174;2023-10-08T11:39:39;0.80;;;0.80;;
19883;SDS011;10104;50.732;10.174;2023-10-08T11:42:25;1.40;;;1.30;;
19883;SDS011;10104;50.732;10.174;2023-10-08T11:45:26;2.10;;;0.73;;
19883;SDS011;10104;50.732;10.174;2023-10-08T11:48:06;3.80;;;3.50;;
19883;SDS011;10104;50.732;10.174;2023-10-08T11:50:53;0.83;;;0.70;;
19883;SDS011;10104;50.732;10.174;2023-10-08T11:53:37;1.50;;;0.90;;
19883;SDS011;10104;50.732;10.174;2023-10-08T11:56:17;0.80;;;0.68;;
19883;SDS011;10104;50.732;10.174;2023-10-08T11:59:01;1.20;;;1.00;;
19883;SDS011;10104;50.732;10.174;2023-10-08T12:01:45;1.00;;;0.70;;
19883;SDS011;10104;50.732;10.174;2023-10-08T12:04:26;2.23;;;0.80;;
19883;SDS011;10104;50.732;10.174;2023-10-08T12:07:10;1.10;;;0.83;;
19883;SDS011;10104;50.732;10.174;2023-10-08T12:09:50;1.15;;;0.85;;
19883;SDS011;10104;50.732;10.174;2023-10-08T12:12:30;1.35;;;0.80;;
19883;SDS011;10104;50.732;10.174;2023-10-08T12:15:12;0.80;;;0.60;;
19883;SDS011;10104;50.732;10.174;2023-10-08T12:17:59;1.52;;;1.00;;
19883;SDS011;10104;50.732;10.174;2023-10-08T12:20:51;1.48;;;0.82;;
19883;SDS011;10104;50.732;10.174;2023-10-08T12:23:32;1.95;;;0.90;;
19883;SDS011;10104;50.732;10.174;2023-10-08T12:26:13;0.90;;;0.90;;
19883;SDS011;10104;50.732;10.174;2023-10-08T12:28:58;2.83;;;1.20;;
19883;SDS011;10104;50.732;10.174;2023-10-08T12:31:40;1.15;;;1.00;;
19883;SDS011;10104;50.732;10.174;2023-10-08T12:34:21;1.13;;;0.70;;
19883;SDS011;10104;50.732;10.174;2023-10-08T12:37:02;0.75;;;0.68;;
19883;SDS011;10104;50.732;10.174;2023-10-08T12:39:42;1.27;;;0.80;;
19883;SDS011;10104;50.732;10.174;2023-10-08T12:42:40;1.52;;;0.90;;
19883;SDS011;10104;50.732;10.174;2023-10-08T12:45:27;0.88;;;0.80;;
19883;SDS011;10104;50.732;10.174;2023-10-08T12:48:07;1.77;;;0.70;;
19883;SDS011;10104;50.732;10.174;2023-10-08T12:50:48;2.15;;;0.70;;
19883;SDS011;10104;50.732;10.174;2023-10-08T12:53:33;1.23;;;0.65;;
19883;SDS011;10104;50.732;10.174;2023-10-08T12:56:14;2.90;;;1.02;;
19883;SDS011;10104;50.732;10.174;2023-10-08T12:58:56;0.70;;;0.60;;
19883;SDS011;10104;50.732;10.174;2023-10-08T13:01:36;1.75;;;0.80;;
19883;SDS011;10104;50.732;10.174;2023-10-08T13:04:21;2.55;;;2.17;;
19883;SDS011;10104;50.732;10.174;2023-10-08T13:07:08;4.55;;;0.90;;
19883;SDS011;10104;50.732;10.174;2023-10-08T13:09:52;0.70;;;0.60;;
19883;SDS011;10104;50.732;10.174;2023-10-08T13:12:33;1.30;;;1.20;;
19883;SDS011;10104;50.732;10.174;2023-10-08T13:15:13;3.65;;;0.80;;
19883;SDS011;10104;50.732;10.174;2023-10-08T13:17:53;0.80;;;0.60;;
19883;SDS011;10104;50.732;10.174;2023-10-08T13:20:34;0.65;;;0.50;;
19883;SDS011;10104;50.732;10.174;2023-10-08T13:23:14;1.17;;;0.70;;
19883;SDS011;10104;50.732;10.174;2023-10-08T13:25:54;0.55;;;0.55;;
19883;SDS011;10104;50.732;10.174;2023-10-08T13:28:35;1.65;;;0.90;;
19883;SDS011;10104;50.732;10.174;2023-10-08T13:31:16;1.23;;;0.80;;
19883;SDS011;10104;50.732;10.174;2023-10-08T13:33:59;1.00;;;0.80;;
19883;SDS011;10104;50.732;10.174;2023-10-08T13:36:42;0.77;;;0.60;;
19883;SDS011;10104;50.732;10.174;2023-10-08T13:39:27;0.93;;;0.80;;
19883;SDS011;10104;50.732;10.174;2023-10-08T13:42:07;0.93;;;0.82;;
19883;SDS011;10104;50.732;10.174;2023-10-08T13:44:49;1.30;;;1.20;;
19883;SDS011;10104;50.732;10.174;2023-10-08T13:47:29;3.00;;;2.17;;
19883;SDS011;10104;50.732;10.174;2023-10-08T13:50:13;2.28;;;1.27;;
19883;SDS011;10104;50.732;10.174;2023-10-08T13:52:54;1.55;;;1.25;;
19883;SDS011;10104;50.732;10.174;2023-10-08T13:55:34;1.23;;;0.90;;
19883;SDS011;10104;50.732;10.174;2023-10-08T13:58:14;1.10;;;0.95;;
19883;SDS011;10104;50.732;10.174;2023-10-08T14:00:54;1.10;;;0.90;;
19883;SDS011;10104;50.732;10.174;2023-10-08T14:03:34;1.00;;;0.70;;
19883;SDS011;10104;50.732;10.174;2023-10-08T14:06:17;1.55;;;1.10;;
19883;SDS011;10104;50.732;10.174;2023-10-08T14:08:57;1.13;;;0.90;;
19883;SDS011;10104;50.732;10.174;2023-10-08T14:11:40;1.42;;;1.10;;
19883;SDS011;10104;50.732;10.174;2023-10-08T14:14:21;2.17;;;1.67;;
19883;SDS011;10104;50.732;10.174;2023-10-08T14:17:04;1.75;;;1.17;;
19883;SDS011;10104;50.732;10.174;2023-10-08T14:19:47;1.60;;;1.10;;
19883;SDS011;10104;50.732;10.174;2023-10-08T14:22:40;1.52;;;1.10;;
19883;SDS011;10104;50.732;10.174;2023-10-08T14:25:20;1.25;;;1.00;;
19883;SDS011;10104;50.732;10.174;2023-10-08T14:28:04;1.10;;;1.00;;
19883;SDS011;10104;50.732;10.174;2023-10-08T14:30:44;1.30;;;0.77;;
19883;SDS011;10104;50.732;10.174;2023-10-08T14:33:26;2.08;;;0.82;;
19883;SDS011;10104;50.732;10.174;2023-10-08T14:36:11;1.40;;;1.00;;
19883;SDS011;10104;50.732;10.174;2023-10-08T14:39:10;1.10;;;0.90;;
19883;SDS011;10104;50.732;10.174;2023-10-08T14:42:09;1.15;;;0.73;;
19883;SDS011;10104;50.732;10.174;2023-10-08T14:45:07;2.00;;;0.90;;
19883;SDS011;10104;50.732;10.174;2023-10-08T14:47:54;0.80;;;0.68;;
19883;SDS011;10104;50.732;10.174;2023-10-08T14:50:35;1.88;;;1.10;;
19883;SDS011;10104;50.732;10.174;2023-10-08T14:53:16;3.22;;;1.80;;
19883;SDS011;10104;50.732;10.174;2023-10-08T14:55:56;1.27;;;0.70;;
19883;SDS011;10104;50.732;10.174;2023-10-08T14:58:37;2.08;;;1.52;;
19883;SDS011;10104;50.732;10.174;2023-10-08T15:01:17;1.48;;;1.00;;
19883;SDS011;10104;50.732;10.174;2023-10-08T15:04:00;2.38;;;1.35;;
19883;SDS011;10104;50.732;10.174;2023-10-08T15:06:44;2.65;;;1.13;;
19883;SDS011;10104;50.732;10.174;2023-10-08T15:09:24;2.13;;;0.98;;
19883;SDS011;10104;50.732;10.174;2023-10-08T15:12:05;0.90;;;0.80;;
19883;SDS011;10104;50.732;10.174;2023-10-08T15:14:48;1.50;;;1.10;;
19883;SDS011;10104;50.732;10.174;2023-10-08T15:17:30;1.83;;;1.00;;
19883;SDS011;10104;50.732;10.174;2023-10-08T15:20:14;1.10;;;1.00;;
19883;SDS011;10104;50.732;10.174;2023-10-08T15:23:00;1.52;;;1.23;;
19883;SDS011;10104;50.732;10.174;2023-10-08T15:25:40;1.80;;;1.30;;
19883;SDS011;10104;50.732;10.174;2023-10-08T15:28:21;1.17;;;1.00;;
19883;SDS011;10104;50.732;10.174;2023-10-08T15:31:02;1.58;;;1.10;;
19883;SDS011;10104;50.732;10.174;2023-10-08T15:33:42;2.60;;;0.90;;
19883;SDS011;10104;50.732;10.174;2023-10-08T15:36:23;1.63;;;1.10;;
19883;SDS011;10104;50.732;10.174;2023-10-08T15:39:04;1.48;;;0.80;;
19883;SDS011;10104;50.732;10.174;2023-10-08T15:41:44;1.38;;;1.20;;
19883;SDS011;10104;50.732;10.174;2023-10-08T15:44:25;2.30;;;1.20;;
19883;SDS011;10104;50.732;10.174;2023-10-08T15:47:05;3.00;;;2.40;;
19883;SDS011;10104;50.732;10.174;2023-10-08T15:49:45;4.32;;;2.60;;
19883;SDS011;10104;50.732;10.174;2023-10-08T15:52:26;4.80;;;2.10;;
19883;SDS011;10104;50.732;10.174;2023-10-08T15:55:07;3.88;;;1.50;;
19883;SDS011;10104;50.732;10.174;2023-10-08T15:57:47;4.05;;;1.08;;
19883;SDS011;10104;50.732;10.174;2023-10-08T16:00:28;1.63;;;0.90;;
19883;SDS011;10104;50.732;10.174;2023-10-08T16:03:08;1.73;;;1.10;;
19883;SDS011;10104;50.732;10.174;2023-10-08T16:05:49;2.20;;;0.80;;
19883;SDS011;10104;50.732;10.174;2023-10-08T16:08:30;1.00;;;0.90;;
19883;SDS011;10104;50.732;10.174;2023-10-08T16:11:10;3.47;;;0.88;;
19883;SDS011;10104;50.732;10.174;2023-10-08T16:13:51;1.10;;;0.90;;
19883;SDS011;10104;50.732;10.174;2023-10-08T16:16:32;2.13;;;0.95;;
19883;SDS011;10104;50.732;10.174;2023-10-08T16:19:15;1.42;;;0.90;;
19883;SDS011;10104;50.732;10.174;2023-10-08T16:21:56;1.92;;;1.10;;